sensor_id;sensor_type;location;lat;lon;timestamp;temperature;humidity
65038;DHT22;51605;47.040;15.294;2023-06-22T00:00:55;23.90;44.60
65038;DHT22;51605;47.040;15.294;2023-06-22T00:03:22;24.00;44.50
65038;DHT22;51605;47.040;15.294;2023-06-22T00:05:49;24.00;44.50
65038;DHT22;51605;47.040;15.294;2023-06-22T00:08:15;24.00;44.60
65038;DHT22;51605;47.040;15.294;2023-06-22T00:10:42;24.00;44.60
65038;DHT22;51605;47.040;15.294;2023-06-22T00:13:08;23.90;44.60
65038;DHT22;51605;47.040;15.294;2023-06-22T00:15:35;24.00;44.60
65038;DHT22;51605;47.040;15.294;2023-06-22T00:18:02;23.90;44.60
65038;DHT22;51605;47.040;15.294;2023-06-22T00:20:28;23.90;44.60
65038;DHT22;51605;47.040;15.294;2023-06-22T00:22:58;23.90;44.70
65038;DHT22;51605;47.040;15.294;2023-06-22T00:25:24;23.90;44.80
65038;DHT22;51605;47.040;15.294;2023-06-22T00:27:50;24.00;44.90
65038;DHT22;51605;47.040;15.294;2023-06-22T00:30:17;24.00;44.80
65038;DHT22;51605;47.040;15.294;2023-06-22T00:32:43;23.90;44.80
65038;DHT22;51605;47.040;15.294;2023-06-22T00:35:09;23.90;45.70
65038;DHT22;51605;47.040;15.294;2023-06-22T00:37:36;24.00;44.90
65038;DHT22;51605;47.040;15.294;2023-06-22T00:40:03;23.90;44.90
65038;DHT22;51605;47.040;15.294;2023-06-22T00:42:30;23.90;44.80
65038;DHT22;51605;47.040;15.294;2023-06-22T00:44:56;23.90;44.80
65038;DHT22;51605;47.040;15.294;2023-06-22T00:47:22;23.90;44.80
65038;DHT22;51605;47.040;15.294;2023-06-22T00:49:49;23.90;44.90
65038;DHT22;51605;47.040;15.294;2023-06-22T00:52:17;24.00;44.90
65038;DHT22;51605;47.040;15.294;2023-06-22T00:54:49;23.90;44.90
65038;DHT22;51605;47.040;15.294;2023-06-22T00:57:16;24.00;44.90
65038;DHT22;51605;47.040;15.294;2023-06-22T00:59:43;23.90;45.10
65038;DHT22;51605;47.040;15.294;2023-06-22T01:02:09;23.90;45.00
65038;DHT22;51605;47.040;15.294;2023-06-22T01:04:36;23.90;45.10
65038;DHT22;51605;47.040;15.294;2023-06-22T01:07:34;23.90;45.00
65038;DHT22;51605;47.040;15.294;2023-06-22T01:10:08;23.90;45.10
65038;DHT22;51605;47.040;15.294;2023-06-22T01:12:42;24.00;45.00
65038;DHT22;51605;47.040;15.294;2023-06-22T01:15:13;24.00;45.10
65038;DHT22;51605;47.040;15.294;2023-06-22T01:17:40;24.00;45.10
65038;DHT22;51605;47.040;15.294;2023-06-22T01:20:09;24.00;46.10
65038;DHT22;51605;47.040;15.294;2023-06-22T01:23:09;23.90;45.00
65038;DHT22;51605;47.040;15.294;2023-06-22T01:25:48;23.90;45.10
65038;DHT22;51605;47.040;15.294;2023-06-22T01:31:08;23.90;45.20
65038;DHT22;51605;47.040;15.294;2023-06-22T01:33:40;23.90;45.10
65038;DHT22;51605;47.040;15.294;2023-06-22T01:36:07;23.90;45.20
65038;DHT22;51605;47.040;15.294;2023-06-22T01:38:33;23.90;45.10
65038;DHT22;51605;47.040;15.294;2023-06-22T01:41:00;23.90;45.20
65038;DHT22;51605;47.040;15.294;2023-06-22T01:43:28;24.00;45.10
65038;DHT22;51605;47.040;15.294;2023-06-22T01:45:54;24.00;45.10
65038;DHT22;51605;47.040;15.294;2023-06-22T01:48:21;24.00;45.20
65038;DHT22;51605;47.040;15.294;2023-06-22T01:50:47;23.90;45.20
65038;DHT22;51605;47.040;15.294;2023-06-22T01:53:13;24.00;45.10
65038;DHT22;51605;47.040;15.294;2023-06-22T01:55:38;24.00;45.20
65038;DHT22;51605;47.040;15.294;2023-06-22T01:58:04;23.90;45.20
65038;DHT22;51605;47.040;15.294;2023-06-22T02:00:36;23.90;45.20
65038;DHT22;51605;47.040;15.294;2023-06-22T02:03:24;24.00;45.40
65038;DHT22;51605;47.040;15.294;2023-06-22T02:06:08;23.90;45.30
65038;DHT22;51605;47.040;15.294;2023-06-22T02:08:41;23.90;45.40
65038;DHT22;51605;47.040;15.294;2023-06-22T02:11:11;23.90;45.30
65038;DHT22;51605;47.040;15.294;2023-06-22T02:13:38;23.90;45.30
65038;DHT22;51605;47.040;15.294;2023-06-22T02:16:11;23.90;45.30
65038;DHT22;51605;47.040;15.294;2023-06-22T02:18:37;24.00;45.50
65038;DHT22;51605;47.040;15.294;2023-06-22T02:21:05;23.90;45.40
65038;DHT22;51605;47.040;15.294;2023-06-22T02:23:31;23.90;45.40
65038;DHT22;51605;47.040;15.294;2023-06-22T02:26:00;24.00;45.40
65038;DHT22;51605;47.040;15.294;2023-06-22T02:28:26;23.90;45.40
65038;DHT22;51605;47.040;15.294;2023-06-22T02:30:51;23.90;45.40
65038;DHT22;51605;47.040;15.294;2023-06-22T02:33:17;23.90;45.40
65038;DHT22;51605;47.040;15.294;2023-06-22T02:35:42;23.90;45.30
65038;DHT22;51605;47.040;15.294;2023-06-22T02:38:13;24.00;45.50
65038;DHT22;51605;47.040;15.294;2023-06-22T02:40:38;24.00;45.50
65038;DHT22;51605;47.040;15.294;2023-06-22T02:43:04;24.00;45.50
65038;DHT22;51605;47.040;15.294;2023-06-22T02:45:30;23.90;45.40
65038;DHT22;51605;47.040;15.294;2023-06-22T02:47:56;23.90;45.60
65038;DHT22;51605;47.040;15.294;2023-06-22T02:50:22;24.00;45.50
65038;DHT22;51605;47.040;15.294;2023-06-22T02:52:48;23.90;45.40
65038;DHT22;51605;47.040;15.294;2023-06-22T02:55:14;23.90;45.50
65038;DHT22;51605;47.040;15.294;2023-06-22T02:57:39;23.90;45.50
65038;DHT22;51605;47.040;15.294;2023-06-22T03:00:10;23.90;45.50
65038;DHT22;51605;47.040;15.294;2023-06-22T03:02:46;23.90;45.50
65038;DHT22;51605;47.040;15.294;2023-06-22T03:05:13;23.90;45.60
65038;DHT22;51605;47.040;15.294;2023-06-22T03:07:42;23.90;45.50
65038;DHT22;51605;47.040;15.294;2023-06-22T03:10:12;23.90;45.60
65038;DHT22;51605;47.040;15.294;2023-06-22T03:12:39;24.00;45.50
65038;DHT22;51605;47.040;15.294;2023-06-22T03:15:11;24.00;45.60
65038;DHT22;51605;47.040;15.294;2023-06-22T03:17:39;23.90;45.70
65038;DHT22;51605;47.040;15.294;2023-06-22T03:20:06;23.90;45.70
65038;DHT22;51605;47.040;15.294;2023-06-22T03:22:40;23.90;45.70
65038;DHT22;51605;47.040;15.294;2023-06-22T03:25:09;23.90;45.80
65038;DHT22;51605;47.040;15.294;2023-06-22T03:27:41;23.90;45.80
65038;DHT22;51605;47.040;15.294;2023-06-22T03:30:08;23.90;45.90
65038;DHT22;51605;47.040;15.294;2023-06-22T03:32:34;23.90;45.90
65038;DHT22;51605;47.040;15.294;2023-06-22T03:35:00;24.00;45.80
65038;DHT22;51605;47.040;15.294;2023-06-22T03:37:26;23.90;45.80
65038;DHT22;51605;47.040;15.294;2023-06-22T03:39:52;23.90;45.80
65038;DHT22;51605;47.040;15.294;2023-06-22T03:42:18;23.90;45.80
65038;DHT22;51605;47.040;15.294;2023-06-22T03:44:44;23.90;45.80
65038;DHT22;51605;47.040;15.294;2023-06-22T03:47:09;23.90;45.90
65038;DHT22;51605;47.040;15.294;2023-06-22T03:49:35;23.90;45.80
65038;DHT22;51605;47.040;15.294;2023-06-22T03:52:02;23.90;45.80
65038;DHT22;51605;47.040;15.294;2023-06-22T03:54:29;23.90;45.90
65038;DHT22;51605;47.040;15.294;2023-06-22T03:56:55;23.90;45.90
65038;DHT22;51605;47.040;15.294;2023-06-22T03:59:21;23.90;45.90
65038;DHT22;51605;47.040;15.294;2023-06-22T04:01:47;23.90;45.90
65038;DHT22;51605;47.040;15.294;2023-06-22T04:04:12;23.90;45.90
65038;DHT22;51605;47.040;15.294;2023-06-22T04:06:38;23.90;45.90
65038;DHT22;51605;47.040;15.294;2023-06-22T04:09:06;23.90;46.00
65038;DHT22;51605;47.040;15.294;2023-06-22T04:11:32;23.90;46.00
65038;DHT22;51605;47.040;15.294;2023-06-22T04:13:57;23.90;46.00
65038;DHT22;51605;47.040;15.294;2023-06-22T04:16:23;23.90;45.90
65038;DHT22;51605;47.040;15.294;2023-06-22T04:18:49;23.90;46.00
65038;DHT22;51605;47.040;15.294;2023-06-22T04:21:14;23.90;45.90
65038;DHT22;51605;47.040;15.294;2023-06-22T04:23:40;23.90;46.00
65038;DHT22;51605;47.040;15.294;2023-06-22T04:26:05;23.90;45.90
65038;DHT22;51605;47.040;15.294;2023-06-22T04:28:31;23.90;46.00
65038;DHT22;51605;47.040;15.294;2023-06-22T04:31:01;23.90;46.00
65038;DHT22;51605;47.040;15.294;2023-06-22T04:33:27;23.90;46.00
65038;DHT22;51605;47.040;15.294;2023-06-22T04:35:55;23.90;46.00
65038;DHT22;51605;47.040;15.294;2023-06-22T04:38:22;23.90;46.00
65038;DHT22;51605;47.040;15.294;2023-06-22T04:40:48;23.90;46.10
65038;DHT22;51605;47.040;15.294;2023-06-22T04:43:14;23.90;46.00
65038;DHT22;51605;47.040;15.294;2023-06-22T04:45:40;23.90;46.10
65038;DHT22;51605;47.040;15.294;2023-06-22T04:48:05;23.90;46.10
65038;DHT22;51605;47.040;15.294;2023-06-22T04:50:31;23.90;46.00
65038;DHT22;51605;47.040;15.294;2023-06-22T04:52:57;23.90;46.00
65038;DHT22;51605;47.040;15.294;2023-06-22T04:55:23;23.90;46.00
65038;DHT22;51605;47.040;15.294;2023-06-22T04:57:51;23.90;46.00
65038;DHT22;51605;47.040;15.294;2023-06-22T05:00:20;23.90;46.00
65038;DHT22;51605;47.040;15.294;2023-06-22T05:02:48;23.90;46.10
65038;DHT22;51605;47.040;15.294;2023-06-22T05:05:14;23.90;46.20
65038;DHT22;51605;47.040;15.294;2023-06-22T05:07:42;23.90;46.40
65038;DHT22;51605;47.040;15.294;2023-06-22T05:10:09;23.90;46.20
65038;DHT22;51605;47.040;15.294;2023-06-22T05:12:36;23.90;46.20
65038;DHT22;51605;47.040;15.294;2023-06-22T05:15:02;23.90;46.30
65038;DHT22;51605;47.040;15.294;2023-06-22T05:17:27;23.90;46.20
65038;DHT22;51605;47.040;15.294;2023-06-22T05:19:53;23.90;46.20
65038;DHT22;51605;47.040;15.294;2023-06-22T05:22:20;23.90;46.20
65038;DHT22;51605;47.040;15.294;2023-06-22T05:24:46;23.90;46.30
65038;DHT22;51605;47.040;15.294;2023-06-22T05:27:12;23.90;46.20
65038;DHT22;51605;47.040;15.294;2023-06-22T05:29:39;23.90;46.20
65038;DHT22;51605;47.040;15.294;2023-06-22T05:32:05;23.90;46.30
65038;DHT22;51605;47.040;15.294;2023-06-22T05:34:31;23.90;46.30
65038;DHT22;51605;47.040;15.294;2023-06-22T05:36:56;23.90;46.30
65038;DHT22;51605;47.040;15.294;2023-06-22T05:39:24;23.90;46.30
65038;DHT22;51605;47.040;15.294;2023-06-22T05:41:50;23.90;46.30
65038;DHT22;51605;47.040;15.294;2023-06-22T05:44:16;23.90;46.40
65038;DHT22;51605;47.040;15.294;2023-06-22T05:46:43;23.90;46.40
65038;DHT22;51605;47.040;15.294;2023-06-22T05:49:14;23.90;46.40
65038;DHT22;51605;47.040;15.294;2023-06-22T05:51:39;23.90;46.40
65038;DHT22;51605;47.040;15.294;2023-06-22T05:54:05;23.90;46.40
65038;DHT22;51605;47.040;15.294;2023-06-22T05:56:31;23.90;46.40
65038;DHT22;51605;47.040;15.294;2023-06-22T05:58:56;23.90;46.40
65038;DHT22;51605;47.040;15.294;2023-06-22T06:01:22;23.90;46.30
65038;DHT22;51605;47.040;15.294;2023-06-22T06:03:47;23.90;46.40
65038;DHT22;51605;47.040;15.294;2023-06-22T06:06:14;23.90;46.40
65038;DHT22;51605;47.040;15.294;2023-06-22T06:08:41;23.90;46.40
65038;DHT22;51605;47.040;15.294;2023-06-22T06:11:07;24.00;46.30
65038;DHT22;51605;47.040;15.294;2023-06-22T06:13:32;23.90;46.30
65038;DHT22;51605;47.040;15.294;2023-06-22T06:15:58;23.90;46.30
65038;DHT22;51605;47.040;15.294;2023-06-22T06:18:24;23.90;46.40
65038;DHT22;51605;47.040;15.294;2023-06-22T06:20:50;23.90;46.40
65038;DHT22;51605;47.040;15.294;2023-06-22T06:23:16;23.90;46.50
65038;DHT22;51605;47.040;15.294;2023-06-22T06:25:41;23.90;46.50
65038;DHT22;51605;47.040;15.294;2023-06-22T06:28:07;23.90;46.50
65038;DHT22;51605;47.040;15.294;2023-06-22T06:30:33;23.90;46.50
65038;DHT22;51605;47.040;15.294;2023-06-22T06:32:58;23.90;46.50
65038;DHT22;51605;47.040;15.294;2023-06-22T06:35:24;23.90;46.60
65038;DHT22;51605;47.040;15.294;2023-06-22T06:37:50;23.90;46.60
65038;DHT22;51605;47.040;15.294;2023-06-22T06:40:17;23.90;46.70
65038;DHT22;51605;47.040;15.294;2023-06-22T06:42:46;23.90;46.70
65038;DHT22;51605;47.040;15.294;2023-06-22T06:45:14;23.90;46.70
65038;DHT22;51605;47.040;15.294;2023-06-22T06:47:40;23.90;46.60
65038;DHT22;51605;47.040;15.294;2023-06-22T06:50:06;23.90;46.60
65038;DHT22;51605;47.040;15.294;2023-06-22T06:52:32;23.90;46.60
65038;DHT22;51605;47.040;15.294;2023-06-22T06:54:59;23.90;46.60
65038;DHT22;51605;47.040;15.294;2023-06-22T06:57:24;23.90;46.70
65038;DHT22;51605;47.040;15.294;2023-06-22T06:59:54;23.90;46.70
65038;DHT22;51605;47.040;15.294;2023-06-22T07:02:20;23.90;46.70
65038;DHT22;51605;47.040;15.294;2023-06-22T07:04:46;23.90;46.80
65038;DHT22;51605;47.040;15.294;2023-06-22T07:07:12;23.90;46.70
65038;DHT22;51605;47.040;15.294;2023-06-22T07:09:38;23.90;46.70
65038;DHT22;51605;47.040;15.294;2023-06-22T07:12:04;23.90;46.70
65038;DHT22;51605;47.040;15.294;2023-06-22T07:14:29;23.90;46.80
65038;DHT22;51605;47.040;15.294;2023-06-22T07:16:57;23.90;46.70
65038;DHT22;51605;47.040;15.294;2023-06-22T07:19:26;23.90;46.70
65038;DHT22;51605;47.040;15.294;2023-06-22T07:21:53;23.90;46.80
65038;DHT22;51605;47.040;15.294;2023-06-22T07:24:19;23.90;46.80
65038;DHT22;51605;47.040;15.294;2023-06-22T07:26:49;23.90;46.70
65038;DHT22;51605;47.040;15.294;2023-06-22T07:29:19;23.90;46.70
65038;DHT22;51605;47.040;15.294;2023-06-22T07:31:46;23.90;46.70
65038;DHT22;51605;47.040;15.294;2023-06-22T07:34:12;23.90;46.70
65038;DHT22;51605;47.040;15.294;2023-06-22T07:36:38;23.90;46.70
65038;DHT22;51605;47.040;15.294;2023-06-22T07:39:04;23.90;46.70
65038;DHT22;51605;47.040;15.294;2023-06-22T07:41:30;23.90;46.70
65038;DHT22;51605;47.040;15.294;2023-06-22T07:43:55;23.90;46.80
65038;DHT22;51605;47.040;15.294;2023-06-22T07:46:21;23.90;46.80
65038;DHT22;51605;47.040;15.294;2023-06-22T07:48:47;23.90;46.80
65038;DHT22;51605;47.040;15.294;2023-06-22T07:51:13;23.90;46.90
65038;DHT22;51605;47.040;15.294;2023-06-22T07:53:43;23.90;46.80
65038;DHT22;51605;47.040;15.294;2023-06-22T07:56:13;23.90;46.80
65038;DHT22;51605;47.040;15.294;2023-06-22T07:58:39;23.90;46.80
65038;DHT22;51605;47.040;15.294;2023-06-22T08:01:04;23.90;46.80
65038;DHT22;51605;47.040;15.294;2023-06-22T08:03:31;23.90;47.00
65038;DHT22;51605;47.040;15.294;2023-06-22T08:05:57;23.90;46.90
65038;DHT22;51605;47.040;15.294;2023-06-22T08:08:23;23.90;46.90
65038;DHT22;51605;47.040;15.294;2023-06-22T08:10:49;23.90;46.90
65038;DHT22;51605;47.040;15.294;2023-06-22T08:13:15;23.90;46.90
65038;DHT22;51605;47.040;15.294;2023-06-22T08:15:40;23.90;46.90
65038;DHT22;51605;47.040;15.294;2023-06-22T08:18:06;23.90;46.90
65038;DHT22;51605;47.040;15.294;2023-06-22T08:20:32;23.90;46.90
65038;DHT22;51605;47.040;15.294;2023-06-22T08:22:58;23.90;46.90
65038;DHT22;51605;47.040;15.294;2023-06-22T08:25:30;23.90;46.90
65038;DHT22;51605;47.040;15.294;2023-06-22T08:27:56;23.90;46.90
65038;DHT22;51605;47.040;15.294;2023-06-22T08:30:21;23.90;47.00
65038;DHT22;51605;47.040;15.294;2023-06-22T08:32:47;23.90;46.90
65038;DHT22;51605;47.040;15.294;2023-06-22T08:35:13;23.90;46.90
65038;DHT22;51605;47.040;15.294;2023-06-22T08:37:39;23.90;47.00
65038;DHT22;51605;47.040;15.294;2023-06-22T08:40:09;23.90;47.00
65038;DHT22;51605;47.040;15.294;2023-06-22T08:42:35;23.90;47.00
65038;DHT22;51605;47.040;15.294;2023-06-22T08:45:02;23.90;47.10
65038;DHT22;51605;47.040;15.294;2023-06-22T08:47:28;23.90;47.00
65038;DHT22;51605;47.040;15.294;2023-06-22T08:49:54;23.90;47.10
65038;DHT22;51605;47.040;15.294;2023-06-22T08:52:19;23.90;47.00
65038;DHT22;51605;47.040;15.294;2023-06-22T08:54:46;23.90;47.00
65038;DHT22;51605;47.040;15.294;2023-06-22T08:57:12;23.90;47.10
65038;DHT22;51605;47.040;15.294;2023-06-22T08:59:37;23.90;47.10
65038;DHT22;51605;47.040;15.294;2023-06-22T09:02:03;23.90;47.00
65038;DHT22;51605;47.040;15.294;2023-06-22T09:04:29;23.90;47.00
65038;DHT22;51605;47.040;15.294;2023-06-22T09:06:55;23.90;47.00
65038;DHT22;51605;47.040;15.294;2023-06-22T09:09:21;23.90;47.10
65038;DHT22;51605;47.040;15.294;2023-06-22T09:11:47;23.90;47.10
65038;DHT22;51605;47.040;15.294;2023-06-22T09:14:13;23.90;47.00
65038;DHT22;51605;47.040;15.294;2023-06-22T09:16:39;23.90;47.10
65038;DHT22;51605;47.040;15.294;2023-06-22T09:19:04;23.90;47.10
65038;DHT22;51605;47.040;15.294;2023-06-22T09:21:30;23.80;47.00
65038;DHT22;51605;47.040;15.294;2023-06-22T09:23:56;23.90;47.10
65038;DHT22;51605;47.040;15.294;2023-06-22T09:26:22;23.90;47.10
65038;DHT22;51605;47.040;15.294;2023-06-22T09:28:49;23.90;47.10
65038;DHT22;51605;47.040;15.294;2023-06-22T09:31:15;23.90;47.10
65038;DHT22;51605;47.040;15.294;2023-06-22T09:33:41;23.90;47.10
65038;DHT22;51605;47.040;15.294;2023-06-22T09:36:08;23.90;47.10
65038;DHT22;51605;47.040;15.294;2023-06-22T09:38:37;23.90;47.10
65038;DHT22;51605;47.040;15.294;2023-06-22T09:41:03;23.90;47.10
65038;DHT22;51605;47.040;15.294;2023-06-22T09:43:31;23.80;47.10
65038;DHT22;51605;47.040;15.294;2023-06-22T09:45:56;23.80;47.10
65038;DHT22;51605;47.040;15.294;2023-06-22T09:48:22;23.90;47.20
65038;DHT22;51605;47.040;15.294;2023-06-22T09:50:48;23.90;47.20
65038;DHT22;51605;47.040;15.294;2023-06-22T09:53:13;23.90;47.10
65038;DHT22;51605;47.040;15.294;2023-06-22T09:55:39;23.90;47.10
65038;DHT22;51605;47.040;15.294;2023-06-22T09:58:04;23.80;47.10
65038;DHT22;51605;47.040;15.294;2023-06-22T10:00:30;23.90;47.10
65038;DHT22;51605;47.040;15.294;2023-06-22T10:02:56;23.90;47.10
65038;DHT22;51605;47.040;15.294;2023-06-22T10:05:22;23.90;47.20
65038;DHT22;51605;47.040;15.294;2023-06-22T10:07:48;23.90;47.20
65038;DHT22;51605;47.040;15.294;2023-06-22T10:10:13;23.90;47.20
65038;DHT22;51605;47.040;15.294;2023-06-22T10:12:47;23.80;47.20
65038;DHT22;51605;47.040;15.294;2023-06-22T10:15:14;23.90;47.20
65038;DHT22;51605;47.040;15.294;2023-06-22T10:17:40;23.90;47.20
65038;DHT22;51605;47.040;15.294;2023-06-22T10:20:07;23.80;47.20
65038;DHT22;51605;47.040;15.294;2023-06-22T10:22:42;23.90;47.30
65038;DHT22;51605;47.040;15.294;2023-06-22T10:25:09;23.90;47.30
65038;DHT22;51605;47.040;15.294;2023-06-22T10:27:35;23.80;47.30
65038;DHT22;51605;47.040;15.294;2023-06-22T10:30:00;23.90;47.30
65038;DHT22;51605;47.040;15.294;2023-06-22T10:32:26;23.90;47.20
65038;DHT22;51605;47.040;15.294;2023-06-22T10:34:53;23.90;47.20
65038;DHT22;51605;47.040;15.294;2023-06-22T10:37:18;23.90;47.30
65038;DHT22;51605;47.040;15.294;2023-06-22T10:39:44;24.00;47.10
65038;DHT22;51605;47.040;15.294;2023-06-22T10:42:10;23.90;47.10
65038;DHT22;51605;47.040;15.294;2023-06-22T10:44:35;23.90;47.20
65038;DHT22;51605;47.040;15.294;2023-06-22T10:47:01;23.90;47.20
65038;DHT22;51605;47.040;15.294;2023-06-22T10:49:26;23.90;47.20
65038;DHT22;51605;47.040;15.294;2023-06-22T10:51:52;23.90;47.20
65038;DHT22;51605;47.040;15.294;2023-06-22T10:54:18;23.90;47.30
65038;DHT22;51605;47.040;15.294;2023-06-22T10:56:44;23.90;47.20
65038;DHT22;51605;47.040;15.294;2023-06-22T10:59:10;23.90;47.20
65038;DHT22;51605;47.040;15.294;2023-06-22T11:01:36;23.90;47.20
65038;DHT22;51605;47.040;15.294;2023-06-22T11:04:02;23.90;47.30
65038;DHT22;51605;47.040;15.294;2023-06-22T11:06:28;23.90;47.30
65038;DHT22;51605;47.040;15.294;2023-06-22T11:08:54;23.90;47.30
65038;DHT22;51605;47.040;15.294;2023-06-22T11:11:19;23.90;47.30
65038;DHT22;51605;47.040;15.294;2023-06-22T11:13:45;23.90;47.30
65038;DHT22;51605;47.040;15.294;2023-06-22T11:16:10;23.90;47.30
65038;DHT22;51605;47.040;15.294;2023-06-22T11:18:36;23.90;47.30
65038;DHT22;51605;47.040;15.294;2023-06-22T11:21:02;23.90;47.30
65038;DHT22;51605;47.040;15.294;2023-06-22T11:23:28;23.90;47.30
65038;DHT22;51605;47.040;15.294;2023-06-22T11:25:56;23.90;47.30
65038;DHT22;51605;47.040;15.294;2023-06-22T11:28:22;23.90;47.30
65038;DHT22;51605;47.040;15.294;2023-06-22T11:30:48;23.90;47.30
65038;DHT22;51605;47.040;15.294;2023-06-22T11:33:13;23.90;47.40
65038;DHT22;51605;47.040;15.294;2023-06-22T11:35:39;23.90;47.40
65038;DHT22;51605;47.040;15.294;2023-06-22T11:38:05;23.90;47.40
65038;DHT22;51605;47.040;15.294;2023-06-22T11:40:31;23.90;47.60
65038;DHT22;51605;47.040;15.294;2023-06-22T11:42:56;23.90;47.50
65038;DHT22;51605;47.040;15.294;2023-06-22T11:45:22;23.90;47.50
65038;DHT22;51605;47.040;15.294;2023-06-22T11:47:48;23.90;47.50
65038;DHT22;51605;47.040;15.294;2023-06-22T11:50:14;23.90;47.50
65038;DHT22;51605;47.040;15.294;2023-06-22T11:52:39;23.90;47.50
65038;DHT22;51605;47.040;15.294;2023-06-22T11:55:05;23.90;47.50
65038;DHT22;51605;47.040;15.294;2023-06-22T11:57:39;23.80;47.50
65038;DHT22;51605;47.040;15.294;2023-06-22T12:00:17;23.80;47.60
65038;DHT22;51605;47.040;15.294;2023-06-22T12:02:44;23.80;47.50
65038;DHT22;51605;47.040;15.294;2023-06-22T12:05:10;23.90;47.60
65038;DHT22;51605;47.040;15.294;2023-06-22T12:07:36;23.90;47.60
65038;DHT22;51605;47.040;15.294;2023-06-22T12:10:03;23.80;47.50
65038;DHT22;51605;47.040;15.294;2023-06-22T12:12:29;23.80;47.60
65038;DHT22;51605;47.040;15.294;2023-06-22T12:14:55;23.90;47.60
65038;DHT22;51605;47.040;15.294;2023-06-22T12:17:20;23.80;47.70
65038;DHT22;51605;47.040;15.294;2023-06-22T12:19:46;23.80;47.80
65038;DHT22;51605;47.040;15.294;2023-06-22T12:22:11;23.80;47.80
65038;DHT22;51605;47.040;15.294;2023-06-22T12:24:37;23.80;47.80
65038;DHT22;51605;47.040;15.294;2023-06-22T12:27:03;23.90;47.80
65038;DHT22;51605;47.040;15.294;2023-06-22T12:29:29;23.90;47.80
65038;DHT22;51605;47.040;15.294;2023-06-22T12:31:55;23.90;47.80
65038;DHT22;51605;47.040;15.294;2023-06-22T12:34:20;23.90;48.70
65038;DHT22;51605;47.040;15.294;2023-06-22T12:36:46;23.80;47.80
65038;DHT22;51605;47.040;15.294;2023-06-22T12:39:14;23.80;47.80
65038;DHT22;51605;47.040;15.294;2023-06-22T12:41:39;23.90;47.80
65038;DHT22;51605;47.040;15.294;2023-06-22T12:44:05;23.90;48.70
65038;DHT22;51605;47.040;15.294;2023-06-22T12:46:31;23.90;47.80
65038;DHT22;51605;47.040;15.294;2023-06-22T12:49:03;23.90;47.80
65038;DHT22;51605;47.040;15.294;2023-06-22T12:51:29;23.80;47.70
65038;DHT22;51605;47.040;15.294;2023-06-22T12:53:55;23.80;47.70
65038;DHT22;51605;47.040;15.294;2023-06-22T12:56:21;23.90;47.90
65038;DHT22;51605;47.040;15.294;2023-06-22T12:58:46;23.90;47.70
65038;DHT22;51605;47.040;15.294;2023-06-22T13:01:12;23.90;47.70
65038;DHT22;51605;47.040;15.294;2023-06-22T13:03:37;23.80;47.70
65038;DHT22;51605;47.040;15.294;2023-06-22T13:06:03;23.80;47.70
65038;DHT22;51605;47.040;15.294;2023-06-22T13:08:30;23.90;47.80
65038;DHT22;51605;47.040;15.294;2023-06-22T13:10:55;23.90;47.70
65038;DHT22;51605;47.040;15.294;2023-06-22T13:13:26;23.90;47.80
65038;DHT22;51605;47.040;15.294;2023-06-22T13:15:55;23.90;47.80
65038;DHT22;51605;47.040;15.294;2023-06-22T13:18:20;23.80;47.70
65038;DHT22;51605;47.040;15.294;2023-06-22T13:20:46;23.90;47.80
65038;DHT22;51605;47.040;15.294;2023-06-22T13:23:11;23.90;47.90
65038;DHT22;51605;47.040;15.294;2023-06-22T13:25:37;23.90;47.70
65038;DHT22;51605;47.040;15.294;2023-06-22T13:28:03;23.90;47.80
65038;DHT22;51605;47.040;15.294;2023-06-22T13:30:29;23.90;47.80
65038;DHT22;51605;47.040;15.294;2023-06-22T13:32:55;23.80;47.70
65038;DHT22;51605;47.040;15.294;2023-06-22T13:35:21;23.90;47.70
65038;DHT22;51605;47.040;15.294;2023-06-22T13:37:47;23.90;47.70
65038;DHT22;51605;47.040;15.294;2023-06-22T13:40:12;23.90;47.70
65038;DHT22;51605;47.040;15.294;2023-06-22T13:42:38;23.90;47.70
65038;DHT22;51605;47.040;15.294;2023-06-22T13:45:05;23.90;47.80
65038;DHT22;51605;47.040;15.294;2023-06-22T13:47:31;23.90;47.80
65038;DHT22;51605;47.040;15.294;2023-06-22T13:49:57;23.80;47.80
65038;DHT22;51605;47.040;15.294;2023-06-22T13:52:23;23.90;47.80
65038;DHT22;51605;47.040;15.294;2023-06-22T13:54:48;23.90;47.80
65038;DHT22;51605;47.040;15.294;2023-06-22T13:57:14;23.90;47.80
65038;DHT22;51605;47.040;15.294;2023-06-22T13:59:40;23.80;48.70
65038;DHT22;51605;47.040;15.294;2023-06-22T14:02:06;23.90;47.80
65038;DHT22;51605;47.040;15.294;2023-06-22T14:04:32;23.90;47.80
65038;DHT22;51605;47.040;15.294;2023-06-22T14:06:58;23.90;47.80
65038;DHT22;51605;47.040;15.294;2023-06-22T14:09:23;23.90;48.70
65038;DHT22;51605;47.040;15.294;2023-06-22T14:11:49;23.90;47.80
65038;DHT22;51605;47.040;15.294;2023-06-22T14:14:15;23.90;48.80
65038;DHT22;51605;47.040;15.294;2023-06-22T14:16:40;23.90;47.80
65038;DHT22;51605;47.040;15.294;2023-06-22T14:19:06;23.90;47.80
65038;DHT22;51605;47.040;15.294;2023-06-22T14:21:32;23.80;47.90
65038;DHT22;51605;47.040;15.294;2023-06-22T14:23:57;23.80;47.80
65038;DHT22;51605;47.040;15.294;2023-06-22T14:26:23;23.80;47.80
65038;DHT22;51605;47.040;15.294;2023-06-22T14:28:49;23.90;47.80
65038;DHT22;51605;47.040;15.294;2023-06-22T14:31:18;23.90;47.80
65038;DHT22;51605;47.040;15.294;2023-06-22T14:33:49;23.90;47.80
65038;DHT22;51605;47.040;15.294;2023-06-22T14:36:18;23.80;47.80
65038;DHT22;51605;47.040;15.294;2023-06-22T14:38:44;23.90;48.00
65038;DHT22;51605;47.040;15.294;2023-06-22T14:41:09;23.90;47.80
65038;DHT22;51605;47.040;15.294;2023-06-22T14:43:35;23.90;47.90
65038;DHT22;51605;47.040;15.294;2023-06-22T14:46:01;23.80;47.80
65038;DHT22;51605;47.040;15.294;2023-06-22T14:48:26;23.90;47.80
65038;DHT22;51605;47.040;15.294;2023-06-22T14:50:52;23.90;47.80
65038;DHT22;51605;47.040;15.294;2023-06-22T14:53:19;23.90;47.80
65038;DHT22;51605;47.040;15.294;2023-06-22T14:55:45;23.80;47.80
65038;DHT22;51605;47.040;15.294;2023-06-22T14:58:10;23.90;47.80
65038;DHT22;51605;47.040;15.294;2023-06-22T15:00:37;23.90;47.80
65038;DHT22;51605;47.040;15.294;2023-06-22T15:03:03;23.90;47.80
65038;DHT22;51605;47.040;15.294;2023-06-22T15:05:31;23.90;47.90
65038;DHT22;51605;47.040;15.294;2023-06-22T15:07:56;23.90;47.90
65038;DHT22;51605;47.040;15.294;2023-06-22T15:10:22;23.90;47.90
65038;DHT22;51605;47.040;15.294;2023-06-22T15:12:48;23.80;47.80
65038;DHT22;51605;47.040;15.294;2023-06-22T15:15:14;23.80;47.80